createdAt,value
2019-03-24T00:01:05.126Z,82.60
2019-03-24T00:03:35.015Z,83.00
2019-03-24T00:06:16.320Z,83.30
2019-03-24T00:08:50.327Z,83.30
2019-03-24T00:11:24.281Z,83.40
2019-03-24T00:13:59.959Z,83.40
2019-03-24T00:16:32.391Z,83.60
2019-03-24T00:19:03.437Z,83.70
2019-03-24T00:21:37.675Z,83.50
2019-03-24T00:24:08.830Z,83.80
2019-03-24T00:26:41.746Z,83.60
2019-03-24T00:29:15.186Z,83.90
2019-03-24T00:31:48.303Z,83.70
2019-03-24T00:34:19.588Z,83.80
2019-03-24T00:36:51.425Z,83.60
2019-03-24T00:39:25.920Z,83.60
2019-03-24T00:41:55.898Z,83.50
2019-03-24T00:44:27.323Z,83.60
2019-03-24T00:49:38.368Z,83.60
2019-03-24T00:52:09.765Z,83.70
2019-03-24T00:54:40.867Z,83.80
2019-03-24T00:57:12.190Z,83.90
2019-03-24T00:59:43.350Z,84.20
2019-03-24T01:02:15.516Z,84.50
2019-03-24T01:04:46.450Z,84.40
2019-03-24T01:07:16.359Z,84.40
2019-03-24T01:09:48.638Z,84.80
2019-03-24T01:12:21.562Z,84.90
2019-03-24T01:17:26.740Z,85.00
2019-03-24T01:20:00.705Z,85.20
2019-03-24T01:22:32.946Z,85.10
2019-03-24T01:25:04.526Z,85.20
2019-03-24T01:27:35.506Z,85.40
2019-03-24T01:30:11.966Z,85.50
2019-03-24T01:32:43.739Z,85.90
2019-03-24T01:35:14.934Z,85.90
2019-03-24T01:37:45.972Z,85.80
2019-03-24T01:40:18.501Z,85.90
2019-03-24T01:42:48.443Z,86.10
2019-03-24T01:45:20.184Z,86.40
2019-03-24T01:47:53.553Z,86.20
2019-03-24T01:50:24.599Z,86.30
2019-03-24T01:52:57.020Z,86.50
2019-03-24T01:55:28.025Z,86.70
2019-03-24T01:57:59.246Z,86.80
2019-03-24T02:00:32.504Z,86.50
2019-03-24T02:03:03.835Z,86.30
2019-03-24T02:05:34.882Z,86.20
2019-03-24T02:08:07.045Z,86.00
2019-03-24T02:10:39.352Z,85.90
2019-03-24T02:13:14.367Z,85.90
2019-03-24T02:15:45.662Z,85.90
2019-03-24T02:18:16.842Z,85.90
2019-03-24T02:20:49.956Z,86.00
2019-03-24T02:23:23.380Z,86.10
2019-03-24T02:25:55.828Z,85.90
2019-03-24T02:28:26.890Z,85.90
2019-03-24T02:30:59.314Z,86.00
2019-03-24T02:33:32.034Z,86.00
2019-03-24T02:36:03.636Z,86.10
2019-03-24T02:38:34.659Z,86.10
2019-03-24T02:41:07.037Z,85.80
2019-03-24T02:43:38.028Z,85.90
2019-03-24T02:46:23.589Z,85.70
2019-03-24T02:48:43.700Z,85.60
2019-03-24T02:51:17.535Z,85.50
2019-03-24T02:53:52.754Z,85.50
2019-03-24T02:56:25.743Z,85.60
2019-03-24T02:58:55.663Z,85.80
2019-03-24T03:01:25.107Z,85.90
2019-03-24T03:03:57.898Z,85.90
2019-03-24T03:06:27.675Z,86.00
2019-03-24T03:08:58.844Z,86.10
2019-03-24T03:11:28.172Z,86.30
2019-03-24T03:14:02.751Z,86.40
2019-03-24T03:16:38.791Z,86.60
2019-03-24T03:19:08.373Z,86.60
2019-03-24T03:21:38.339Z,86.80
2019-03-24T03:24:09.466Z,86.80
2019-03-24T03:26:39.329Z,86.80
2019-03-24T03:29:11.800Z,87.00
2019-03-24T03:31:41.672Z,87.20
2019-03-24T03:34:12.213Z,87.40
2019-03-24T03:36:43.307Z,87.50
2019-03-24T03:39:14.202Z,87.60
2019-03-24T03:41:45.226Z,87.70
2019-03-24T03:44:19.754Z,87.70
2019-03-24T03:46:53.270Z,87.90
2019-03-24T03:49:25.691Z,87.70
2019-03-24T03:51:58.017Z,87.60
2019-03-24T03:54:30.588Z,87.60
2019-03-24T03:57:02.912Z,87.40
2019-03-24T03:59:34.229Z,87.30
2019-03-24T04:02:05.672Z,87.30
2019-03-24T04:04:38.084Z,87.80
2019-03-24T04:07:12.751Z,87.60
2019-03-24T04:09:46.288Z,87.50
2019-03-24T04:12:16.291Z,87.40
2019-03-24T04:14:47.305Z,87.40
2019-03-24T04:17:18.665Z,87.10
2019-03-24T04:19:49.586Z,86.90
2019-03-24T04:22:23.568Z,86.90
2019-03-24T04:24:54.899Z,87.00
2019-03-24T04:27:27.253Z,86.90
2019-03-24T04:29:57.230Z,86.90
2019-03-24T04:32:29.606Z,87.00
2019-03-24T04:34:59.503Z,87.60
2019-03-24T04:37:32.960Z,87.20
2019-03-24T04:40:03.063Z,86.90
2019-03-24T04:42:35.324Z,86.80
2019-03-24T04:45:05.988Z,87.00
2019-03-24T04:47:55.399Z,86.60
2019-03-24T04:50:28.747Z,86.40
2019-03-24T04:52:58.852Z,86.30
2019-03-24T04:55:30.773Z,86.50
2019-03-24T04:58:20.028Z,86.30
2019-03-24T05:00:51.334Z,86.30
2019-03-24T05:03:22.297Z,86.30
2019-03-24T05:05:57.873Z,86.00
2019-03-24T05:08:30.355Z,85.90
2019-03-24T05:11:02.461Z,86.10
2019-03-24T05:13:35.985Z,85.80
2019-03-24T05:16:08.617Z,85.70
2019-03-24T05:18:39.217Z,85.60
2019-03-24T05:21:10.399Z,85.20
2019-03-24T05:23:46.097Z,85.10
2019-03-24T05:26:17.681Z,85.00
2019-03-24T05:28:49.463Z,85.00
2019-03-24T05:31:23.015Z,85.20
2019-03-24T05:33:55.357Z,84.90
2019-03-24T05:36:27.666Z,84.60
2019-03-24T05:38:58.708Z,84.40
2019-03-24T05:41:28.544Z,84.50
2019-03-24T05:44:00.372Z,84.80
2019-03-24T05:46:36.411Z,84.80
2019-03-24T05:49:06.332Z,84.60
2019-03-24T05:51:39.831Z,84.80
2019-03-24T05:54:10.975Z,85.00
2019-03-24T05:56:40.253Z,85.20
2019-03-24T05:59:11.253Z,84.90
2019-03-24T06:01:41.366Z,84.90
2019-03-24T06:04:16.073Z,84.70
2019-03-24T06:06:50.617Z,84.70
2019-03-24T06:09:41.264Z,84.50
2019-03-24T06:12:15.509Z,84.00
2019-03-24T06:15:04.774Z,84.10
2019-03-24T06:17:36.529Z,83.40
2019-03-24T06:20:09.204Z,83.90
2019-03-24T06:22:39.152Z,83.80
2019-03-24T06:25:29.931Z,83.30
2019-03-24T06:28:03.728Z,83.20
2019-03-24T06:30:34.772Z,83.10
2019-03-24T06:33:05.892Z,83.60
2019-03-24T06:35:39.447Z,83.30
2019-03-24T06:38:12.403Z,83.10
2019-03-24T06:40:44.158Z,83.60
2019-03-24T06:43:14.672Z,82.90
2019-03-24T06:45:44.648Z,83.40
2019-03-24T06:48:15.667Z,82.80
2019-03-24T06:50:47.011Z,82.90
2019-03-24T06:53:18.079Z,82.60
2019-03-24T06:55:51.199Z,82.30
2019-03-24T06:58:23.770Z,82.30
2019-03-24T07:00:55.166Z,82.60
2019-03-24T07:03:24.808Z,82.90
2019-03-24T07:05:54.584Z,82.50
2019-03-24T07:08:27.829Z,82.40
2019-03-24T07:10:57.267Z,81.90
2019-03-24T07:13:29.730Z,81.70
2019-03-24T07:16:02.837Z,81.90
2019-03-24T07:18:33.605Z,81.70
2019-03-24T07:21:03.717Z,81.80
2019-03-24T07:23:37.311Z,81.90
2019-03-24T07:26:08.077Z,81.30
2019-03-24T07:28:38.968Z,81.30
2019-03-24T07:31:11.679Z,81.10
2019-03-24T07:33:44.018Z,81.20
2019-03-24T07:36:15.157Z,81.10
2019-03-24T07:38:48.717Z,80.30
2019-03-24T07:41:21.979Z,80.20
2019-03-24T07:43:55.005Z,79.90
2019-03-24T07:46:27.365Z,78.70
2019-03-24T07:48:58.309Z,79.20
2019-03-24T07:51:29.365Z,78.90
2019-03-24T07:54:00.259Z,78.50
2019-03-24T07:56:33.435Z,78.20
2019-03-24T07:59:07.537Z,78.40
2019-03-24T08:01:46.057Z,77.50
2019-03-24T08:04:20.836Z,77.80
2019-03-24T08:06:52.947Z,78.30
2019-03-24T08:09:23.740Z,77.60
2019-03-24T08:11:56.565Z,77.50
2019-03-24T08:14:31.041Z,76.00
2019-03-24T08:17:05.523Z,76.70
2019-03-24T08:19:36.331Z,74.60
2019-03-24T08:22:06.335Z,74.40
2019-03-24T08:24:38.045Z,74.20
2019-03-24T08:27:12.831Z,74.20
2019-03-24T08:29:42.223Z,73.00
2019-03-24T08:32:14.575Z,72.40
2019-03-24T08:34:44.536Z,72.70
2019-03-24T08:37:17.286Z,69.80
2019-03-24T08:39:49.400Z,68.10
2019-03-24T08:42:20.551Z,67.30
2019-03-24T08:44:53.663Z,65.00
2019-03-24T08:47:27.754Z,63.10
2019-03-24T08:50:00.326Z,63.00
2019-03-24T08:52:31.611Z,63.70
2019-03-24T08:55:07.848Z,62.60
2019-03-24T08:57:37.749Z,61.60
2019-03-24T09:00:09.925Z,59.00
2019-03-24T09:02:41.522Z,57.60
2019-03-24T09:05:12.795Z,59.10
2019-03-24T09:07:44.896Z,56.50
2019-03-24T09:10:16.245Z,57.40
2019-03-24T09:12:47.903Z,56.00
2019-03-24T09:15:39.229Z,56.10
2019-03-24T09:18:10.159Z,57.60
2019-03-24T09:20:42.073Z,56.70
2019-03-24T09:23:13.502Z,57.60
2019-03-24T09:25:44.450Z,59.80
2019-03-24T09:28:15.797Z,61.00
2019-03-24T09:30:48.267Z,62.20
2019-03-24T09:33:20.490Z,62.00
2019-03-24T09:35:53.106Z,62.20
2019-03-24T09:38:26.970Z,62.80
2019-03-24T09:41:00.034Z,61.20
2019-03-24T09:43:33.811Z,59.10
2019-03-24T09:46:05.149Z,57.90
2019-03-24T09:48:36.148Z,57.40
2019-03-24T09:51:08.959Z,53.80
2019-03-24T09:53:42.851Z,53.00
2019-03-24T09:56:15.211Z,51.90
2019-03-24T09:58:50.375Z,54.40
2019-03-24T10:01:20.805Z,54.60
2019-03-24T10:03:52.320Z,52.30
2019-03-24T10:06:23.212Z,52.00
2019-03-24T10:08:54.287Z,54.30
2019-03-24T10:11:27.028Z,55.20
2019-03-24T10:13:56.326Z,56.30
2019-03-24T10:16:28.074Z,56.70
2019-03-24T10:18:59.133Z,57.30
2019-03-24T10:21:53.033Z,58.10
2019-03-24T10:24:24.598Z,58.00
2019-03-24T10:26:55.467Z,58.20
2019-03-24T10:29:26.467Z,56.60
2019-03-24T10:31:58.858Z,53.20
2019-03-24T10:34:30.224Z,51.50
2019-03-24T10:37:05.159Z,51.80
2019-03-24T10:39:36.386Z,51.80
2019-03-24T10:42:08.216Z,50.80
2019-03-24T10:44:40.362Z,52.40
2019-03-24T10:47:28.890Z,54.10
2019-03-24T10:50:00.303Z,53.10
2019-03-24T10:52:30.360Z,52.30
2019-03-24T10:55:02.255Z,52.60
2019-03-24T10:57:33.594Z,50.90
2019-03-24T11:00:07.474Z,52.70
2019-03-24T11:02:38.576Z,51.40
2019-03-24T11:05:10.999Z,52.40
2019-03-24T11:07:41.073Z,53.10
2019-03-24T11:10:12.736Z,51.50
2019-03-24T11:15:15.965Z,50.20
2019-03-24T11:17:49.427Z,50.90
2019-03-24T11:20:19.342Z,52.90
2019-03-24T11:22:50.259Z,54.10
2019-03-24T11:25:20.272Z,53.90
2019-03-24T11:27:53.117Z,55.20
2019-03-24T11:30:24.180Z,55.60
2019-03-24T11:32:57.156Z,54.80
2019-03-24T11:35:33.952Z,55.50
2019-03-24T11:38:03.796Z,57.50
2019-03-24T11:40:33.181Z,56.90
2019-03-24T11:43:02.179Z,57.10
2019-03-24T11:45:33.398Z,57.80
2019-03-24T11:48:04.521Z,58.30
2019-03-24T11:50:37.062Z,59.20
2019-03-24T11:53:08.455Z,57.40
2019-03-24T11:55:41.848Z,56.50
2019-03-24T11:58:14.935Z,58.10
2019-03-24T12:00:45.015Z,58.10
2019-03-24T12:03:15.203Z,58.00
2019-03-24T12:05:46.797Z,59.80
2019-03-24T12:08:22.535Z,60.10
2019-03-24T12:10:53.915Z,59.60
2019-03-24T12:13:27.218Z,59.80
2019-03-24T12:15:59.517Z,59.50
2019-03-24T12:18:31.825Z,59.90
2019-03-24T12:21:24.414Z,60.00
2019-03-24T12:23:59.266Z,61.30
2019-03-24T12:26:29.484Z,60.40
2019-03-24T12:29:00.841Z,57.40
2019-03-24T12:31:34.798Z,55.80
2019-03-24T12:34:05.591Z,53.30
2019-03-24T12:36:36.742Z,50.10
2019-03-24T12:39:09.927Z,49.80
2019-03-24T12:41:40.828Z,48.40
2019-03-24T12:44:11.750Z,47.20
2019-03-24T12:46:42.957Z,47.80
2019-03-24T12:49:14.196Z,49.90
2019-03-24T12:51:44.068Z,49.90
2019-03-24T12:54:14.968Z,52.50
2019-03-24T12:56:46.062Z,53.30
2019-03-24T12:59:15.907Z,52.40
2019-03-24T13:01:48.092Z,53.00
2019-03-24T13:04:20.480Z,51.90
2019-03-24T13:06:51.781Z,52.60
2019-03-24T13:09:22.970Z,50.60
2019-03-24T13:11:54.065Z,49.60
2019-03-24T13:14:30.586Z,49.70
2019-03-24T13:17:00.615Z,51.90
2019-03-24T13:19:35.978Z,51.10
2019-03-24T13:22:08.466Z,52.00
2019-03-24T13:24:39.623Z,51.30
2019-03-24T13:27:10.620Z,51.80
2019-03-24T13:29:41.534Z,53.60
2019-03-24T13:32:12.633Z,54.40
2019-03-24T13:34:43.410Z,55.40
2019-03-24T13:37:14.423Z,55.60
2019-03-24T13:39:45.731Z,55.30
2019-03-24T13:42:18.199Z,58.40
2019-03-24T13:44:50.362Z,59.00
2019-03-24T13:47:22.110Z,60.30
2019-03-24T13:49:53.914Z,60.20
2019-03-24T13:52:25.077Z,60.10
2019-03-24T13:54:55.916Z,60.10
2019-03-24T13:57:25.406Z,60.00
2019-03-24T13:59:57.138Z,60.80
2019-03-24T14:02:27.447Z,61.90
2019-03-24T14:04:57.434Z,61.20
2019-03-24T14:07:28.394Z,61.50
2019-03-24T14:10:00.569Z,62.00
2019-03-24T14:12:31.934Z,62.20
2019-03-24T14:15:01.304Z,62.00
2019-03-24T14:17:35.815Z,62.60
2019-03-24T14:20:07.859Z,63.10
2019-03-24T14:22:38.977Z,63.70
2019-03-24T14:25:11.191Z,63.20
2019-03-24T14:27:42.299Z,62.70
2019-03-24T14:30:14.064Z,63.30
2019-03-24T14:32:46.361Z,64.20
2019-03-24T14:35:16.998Z,64.70
2019-03-24T14:37:48.229Z,65.30
2019-03-24T14:40:19.250Z,64.40
2019-03-24T14:42:50.223Z,64.40
2019-03-24T14:45:23.551Z,64.70
2019-03-24T14:47:56.554Z,64.80
2019-03-24T14:50:28.995Z,65.30
2019-03-24T14:52:59.907Z,65.10
2019-03-24T14:55:30.999Z,65.30
2019-03-24T14:58:03.356Z,66.00
2019-03-24T15:00:44.559Z,66.00
2019-03-24T15:03:14.748Z,66.00
2019-03-24T15:05:47.106Z,65.90
2019-03-24T15:08:17.015Z,66.50
2019-03-24T15:10:49.238Z,66.20
2019-03-24T15:13:21.533Z,65.90
2019-03-24T15:15:51.431Z,66.10
2019-03-24T15:18:24.823Z,66.40
2019-03-24T15:21:05.157Z,67.00
2019-03-24T15:23:29.233Z,67.40
2019-03-24T15:26:00.245Z,66.70
2019-03-24T15:28:32.440Z,66.90
2019-03-24T15:31:02.487Z,67.30
2019-03-24T15:33:33.575Z,66.50
2019-03-24T15:36:05.873Z,66.80
2019-03-24T15:38:36.823Z,66.60
2019-03-24T15:41:09.216Z,66.80
2019-03-24T15:43:41.210Z,67.20
2019-03-24T15:46:15.201Z,66.70
2019-03-24T15:48:50.017Z,67.20
2019-03-24T15:51:21.587Z,67.10
2019-03-24T15:53:51.491Z,67.60
2019-03-24T15:56:25.443Z,68.10
2019-03-24T15:58:56.499Z,67.80
2019-03-24T16:01:29.906Z,68.10
2019-03-24T16:04:00.827Z,68.20
2019-03-24T16:06:34.886Z,68.10
2019-03-24T16:09:05.808Z,69.00
2019-03-24T16:11:37.116Z,68.60
2019-03-24T16:14:09.072Z,68.90
2019-03-24T16:16:39.120Z,68.80
2019-03-24T16:19:11.252Z,69.20
2019-03-24T16:21:43.085Z,68.80
2019-03-24T16:24:15.366Z,68.70
2019-03-24T16:26:46.722Z,69.50
2019-03-24T16:29:19.645Z,68.90
2019-03-24T16:31:49.632Z,69.50
2019-03-24T16:34:22.731Z,69.60
2019-03-24T16:36:55.228Z,69.70
2019-03-24T16:39:27.078Z,69.70
2019-03-24T16:42:00.242Z,69.60
2019-03-24T16:44:35.036Z,69.90
2019-03-24T16:47:07.642Z,69.50
2019-03-24T16:49:38.624Z,70.30
2019-03-24T16:52:11.116Z,70.30
2019-03-24T16:54:41.011Z,70.10
2019-03-24T16:57:12.738Z,69.60
2019-03-24T16:59:45.251Z,69.90
2019-03-24T17:02:17.050Z,70.10
2019-03-24T17:05:00.724Z,70.70
2019-03-24T17:07:31.607Z,70.50
2019-03-24T17:10:03.781Z,70.60
2019-03-24T17:12:36.118Z,70.90
2019-03-24T17:15:09.973Z,71.30
2019-03-24T17:17:42.455Z,71.10
2019-03-24T17:20:15.319Z,71.50
2019-03-24T17:22:45.258Z,71.50
2019-03-24T17:25:16.855Z,71.20
2019-03-24T17:27:48.146Z,71.40
2019-03-24T17:30:20.705Z,71.60
2019-03-24T17:32:54.748Z,71.70
2019-03-24T17:35:26.656Z,72.10
2019-03-24T17:37:59.016Z,72.20
2019-03-24T17:40:30.366Z,72.60
2019-03-24T17:43:01.546Z,72.20
2019-03-24T17:45:31.450Z,72.20
2019-03-24T17:48:02.680Z,72.40
2019-03-24T17:50:36.482Z,72.90
2019-03-24T17:53:14.507Z,72.70
2019-03-24T17:55:45.697Z,72.60
2019-03-24T17:58:15.623Z,72.60
2019-03-24T18:00:52.156Z,72.70
2019-03-24T18:03:24.851Z,72.80
2019-03-24T18:05:54.940Z,72.80
2019-03-24T18:08:24.159Z,72.80
2019-03-24T18:10:55.869Z,72.90
2019-03-24T18:13:27.200Z,73.10
2019-03-24T18:16:01.470Z,73.40
2019-03-24T18:18:32.698Z,73.00
2019-03-24T18:21:02.645Z,73.00
2019-03-24T18:23:34.143Z,73.50
2019-03-24T18:26:06.515Z,73.50
2019-03-24T18:28:44.658Z,73.20
2019-03-24T18:31:18.794Z,73.80
2019-03-24T18:33:50.271Z,73.40
2019-03-24T18:36:23.112Z,73.80
2019-03-24T18:38:54.727Z,73.50
2019-03-24T18:41:29.917Z,73.70
2019-03-24T18:43:59.725Z,73.50
2019-03-24T18:46:30.808Z,73.60
2019-03-24T18:49:05.083Z,73.40
2019-03-24T18:51:36.945Z,73.10
2019-03-24T18:54:07.032Z,73.50
2019-03-24T18:56:38.028Z,73.50
2019-03-24T19:01:43.104Z,73.70
2019-03-24T19:06:48.887Z,73.70
2019-03-24T19:09:19.072Z,73.80
2019-03-24T19:11:51.698Z,73.80
2019-03-24T19:14:21.495Z,73.50
2019-03-24T19:16:53.747Z,74.10
2019-03-24T19:19:24.782Z,74.20
2019-03-24T19:21:57.879Z,74.00
2019-03-24T19:24:28.913Z,74.10
2019-03-24T19:29:55.452Z,74.10
2019-03-24T19:32:27.798Z,74.40
2019-03-24T19:34:58.956Z,74.60
2019-03-24T19:37:33.179Z,74.70
2019-03-24T19:40:05.840Z,74.50
2019-03-24T19:42:39.371Z,74.20
2019-03-24T19:45:10.427Z,74.60
2019-03-24T19:47:45.159Z,74.80
2019-03-24T19:50:17.081Z,74.90
2019-03-24T19:52:46.867Z,74.90
2019-03-24T19:55:17.792Z,75.10
2019-03-24T19:57:50.814Z,75.10
2019-03-24T20:00:23.141Z,75.20
2019-03-24T20:02:54.410Z,75.40
2019-03-24T20:05:28.184Z,75.10
2019-03-24T20:07:59.594Z,75.50
2019-03-24T20:10:30.388Z,75.60
2019-03-24T20:13:04.753Z,75.90
2019-03-24T20:15:37.792Z,75.40
2019-03-24T20:18:10.059Z,75.40
2019-03-24T20:20:43.846Z,75.60
2019-03-24T20:23:15.617Z,75.80
2019-03-24T20:25:47.764Z,76.10
2019-03-24T20:28:20.883Z,76.20
2019-03-24T20:30:52.770Z,76.20
2019-03-24T20:33:23.335Z,76.50
2019-03-24T20:35:55.299Z,76.50
2019-03-24T20:38:36.535Z,76.50
2019-03-24T20:41:08.763Z,76.60
2019-03-24T20:43:38.807Z,76.60
2019-03-24T20:46:12.484Z,76.80
2019-03-24T20:48:43.548Z,77.00
2019-03-24T20:51:15.835Z,77.10
2019-03-24T20:53:46.822Z,77.30
2019-03-24T20:56:17.273Z,77.30
2019-03-24T20:58:48.617Z,77.40
2019-03-24T21:01:20.054Z,77.40
2019-03-24T21:03:51.239Z,77.30
2019-03-24T21:06:22.103Z,77.60
2019-03-24T21:08:54.792Z,77.70
2019-03-24T21:11:25.848Z,77.90
2019-03-24T21:13:58.050Z,77.50
2019-03-24T21:16:30.711Z,77.20
2019-03-24T21:19:01.551Z,77.20
2019-03-24T21:21:32.512Z,77.10
2019-03-24T21:24:03.523Z,77.40
2019-03-24T21:26:35.929Z,77.40
2019-03-24T21:29:05.894Z,77.60
2019-03-24T21:31:38.726Z,78.00
2019-03-24T21:34:09.872Z,78.60
2019-03-24T21:36:39.910Z,79.00
2019-03-24T21:39:12.505Z,79.10
2019-03-24T21:41:43.451Z,79.40
2019-03-24T21:44:18.176Z,79.40
2019-03-24T21:46:48.113Z,79.70
2019-03-24T21:49:19.434Z,80.00
2019-03-24T21:51:50.312Z,79.80
2019-03-24T21:54:22.698Z,79.80
2019-03-24T21:56:54.033Z,79.80
2019-03-24T21:59:25.476Z,79.90
2019-03-24T22:02:00.430Z,80.00
2019-03-24T22:04:31.440Z,80.00
2019-03-24T22:07:07.283Z,80.00
2019-03-24T22:09:41.335Z,80.20
2019-03-24T22:12:13.562Z,80.30
2019-03-24T22:14:43.561Z,80.20
2019-03-24T22:17:14.666Z,80.30
2019-03-24T22:19:46.135Z,80.70
2019-03-24T22:22:19.241Z,80.90
2019-03-24T22:24:50.371Z,81.10
2019-03-24T22:27:23.074Z,80.80
2019-03-24T22:29:54.066Z,80.80
2019-03-24T22:32:27.237Z,80.70
2019-03-24T22:34:59.782Z,80.80
2019-03-24T22:37:30.775Z,80.80
2019-03-24T22:40:00.794Z,80.50
2019-03-24T22:42:31.760Z,80.70
2019-03-24T22:45:02.852Z,80.80
2019-03-24T22:47:32.761Z,80.60
2019-03-24T22:50:04.797Z,80.50
2019-03-24T22:52:34.665Z,80.00
2019-03-24T22:55:05.275Z,80.00
2019-03-24T22:57:36.212Z,80.20
2019-03-24T23:00:10.985Z,80.40
2019-03-24T23:02:40.883Z,80.50
2019-03-24T23:05:12.251Z,80.80
2019-03-24T23:07:43.191Z,80.90
2019-03-24T23:10:15.696Z,80.70
2019-03-24T23:12:46.681Z,80.80
2019-03-24T23:15:17.659Z,80.60
2019-03-24T23:17:47.549Z,80.80
2019-03-24T23:20:17.528Z,80.70
2019-03-24T23:22:50.826Z,80.70
2019-03-24T23:25:21.870Z,80.70
2019-03-24T23:27:52.964Z,80.50
2019-03-24T23:30:24.375Z,80.80
2019-03-24T23:32:55.592Z,80.60
2019-03-24T23:35:25.529Z,80.70
2019-03-24T23:37:56.578Z,80.70
2019-03-24T23:40:27.714Z,80.90
2019-03-24T23:42:57.451Z,80.60
2019-03-24T23:45:29.810Z,80.40
2019-03-24T23:48:02.200Z,80.20
2019-03-24T23:50:33.348Z,79.80
2019-03-24T23:53:03.393Z,79.80
2019-03-24T23:55:36.022Z,80.00
2019-03-24T23:58:06.801Z,80.10
